Stuart, VA (24171)

9:29 AM EDT on August 31, 2015 (GMT -0400)
Mulberry farm | | Change Station
CLOSE
Current Station
Personal Weather Station
Location: Stuart, VA
Elevation: 1604 ft
Nearby Weather Stations

Elev 1604 ft 36.65 °N, 80.32 °W | Updated 48 seconds ago

Overcast
Overcast
72.6 °F
Feels Like 72 °F
N
6.0
Wind Variable Wind from NE
Gusts 8.0 mph

Today
High -- | Low -- °F
--% Chance of Precip.
Yesterday
High -- | Low -- °F
Precip. -- in
6:51 AM 7:50 PM
Waning Gibbous, 95% visible
Pressure 30.17 in
Visibility 7.0 miles
Clouds Scattered Clouds 3600 ft
Mostly Cloudy 5000 ft
Overcast 10000 ft
Heat Index 72 °F
Dew Point 68 °F
Humidity 85%
Rainfall in
Snow Depth Not available.
UV 1 out of 12
Pollen 6.90 out of 12
Air Quality Not available.
Flu Activity Not available.
METAR KMTV 311250Z AUTO 00000KT 7SM SCT036 BKN050 OVC100 21/21 A3017 RMK AO2 T02100210
Pressure 30.17 in
Visibility 7.0 miles
Clouds Scattered Clouds 3600 ft
Mostly Cloudy 5000 ft
Overcast 10000 ft
Heat Index 72 °F
Dew Point 68 °F
Humidity 85%
Rainfall in
Snow Depth Not available.
UV 1 out of 12
Pollen 6.90 out of 12
Air Quality Not available.
Flu Activity Not available.
METAR KMTV 311250Z AUTO 00000KT 7SM SCT036 BKN050 OVC100 21/21 A3017 RMK AO2 T02100210

10-Day Weather Forecast

×

Almanac

Astronomy

Aug. 31, 2015 Rise Set
Actual Time
Civil Twilight
Nautical Twilight
Astronomical Twilight
Moon
Length of Visible Light
Length of Day
Tomorrow will be .
, % of the Moon is Illuminated

Today's Extremes

State Highs State Lows

Community

WunderPhotos

Upload Photos

1,851,231 photos uploaded!

WunderBlogs® & News

Nearby

Air Quality

  Air Quality AQ Index Pollutant
Not available.

Snow Depth

Station Depth Elevation

Earthquake Activity

City Distance Mag. Time & Date
Minimum magnitude displayed is 2.5.

Coastal Water Temperatures

Place Temperature

Stations

Nearby Weather Stations

Station Location Temp. Windchill Dew Point Humidity Wind Precip. Elev Updated Type